Time;durP1;ratioP1;P1;durP2;ratioP2;P2;SDS_P1;SDS_P2;PMS_P1;PMS_P2;Temp;Humidity;BMP_temperature;BMP_pressure;BME280_temperature;BME280_humidity;BME280_pressure;Samples;Min_cycle;Max_cycle;Signal;HPM_P1;HPM_P2
2023/07/31 00:01:04;;;;;;;16.42;5.97;;;;;;;17.07;100.00;100979.53;5019895;28;20196;-73
2023/07/31 00:03:30;;;;;;;18.98;5.38;;;;;;;17.06;100.00;100970.75;5019335;28;20034;-73
2023/07/31 00:05:55;;;;;;;21.73;6.10;;;;;;;17.05;100.00;100966.41;5020302;28;20097;-73
2023/07/31 00:08:20;;;;;;;20.20;6.10;;;;;;;17.06;100.00;100972.53;5018790;28;20247;-73
2023/07/31 00:10:47;;;;;;;23.20;5.97;;;;;;;17.07;100.00;100976.91;5019016;28;20280;-73
2023/07/31 00:13:12;;;;;;;17.90;5.63;;;;;;;17.06;100.00;100977.81;5019541;28;20284;-73
2023/07/31 00:15:38;;;;;;;14.90;5.13;;;;;;;17.05;100.00;100973.50;5017439;28;20037;-73
2023/07/31 00:18:03;;;;;;;13.75;5.05;;;;;;;17.05;100.00;100971.69;5017057;28;20110;-73
2023/07/31 00:20:28;;;;;;;17.17;5.72;;;;;;;17.05;100.00;100977.00;5019388;28;20056;-73
2023/07/31 00:22:54;;;;;;;13.93;5.35;;;;;;;17.05;100.00;100966.41;5020207;28;20030;-73
2023/07/31 00:25:19;;;;;;;28.50;7.05;;;;;;;17.05;100.00;100958.47;5019584;28;20060;-73
2023/07/31 00:27:45;;;;;;;22.92;5.57;;;;;;;17.05;100.00;100962.94;5019543;28;20038;-73
2023/07/31 00:30:11;;;;;;;20.33;5.97;;;;;;;17.04;100.00;100962.06;5019585;28;20143;-73
2023/07/31 00:32:37;;;;;;;19.65;6.38;;;;;;;17.04;100.00;100959.41;5019500;28;20026;-74
2023/07/31 00:35:02;;;;;;;22.80;6.60;;;;;;;17.03;100.00;100968.31;5019767;28;20060;-73
2023/07/31 00:37:28;;;;;;;15.38;5.57;;;;;;;17.03;100.00;100962.19;5019615;28;20456;-73
2023/07/31 00:39:53;;;;;;;28.08;6.70;;;;;;;17.03;100.00;100960.38;5019864;28;20034;-73
2023/07/31 00:42:18;;;;;;;17.00;6.20;;;;;;;17.03;100.00;100970.13;5019155;28;20041;-73
2023/07/31 00:44:44;;;;;;;15.93;6.18;;;;;;;17.03;100.00;100963.03;5020394;28;20069;-74
2023/07/31 00:47:09;;;;;;;23.65;6.65;;;;;;;17.02;100.00;100963.13;5019998;28;20037;-73
2023/07/31 00:49:35;;;;;;;22.98;6.40;;;;;;;17.01;100.00;100966.72;5018694;28;20064;-73
2023/07/31 00:52:02;;;;;;;25.38;6.55;;;;;;;17.01;100.00;100970.22;5011041;28;20689;-73
2023/07/31 00:54:27;;;;;;;27.05;6.85;;;;;;;17.00;100.00;100965.84;5010115;28;20332;-73
2023/07/31 00:56:54;;;;;;;19.58;6.13;;;;;;;16.99;100.00;100964.19;5015551;28;20042;-74
2023/07/31 00:59:20;;;;;;;17.08;5.25;;;;;;;16.99;100.00;100972.13;5018927;28;20026;-73
2023/07/31 01:01:46;;;;;;;17.15;5.45;;;;;;;16.99;100.00;100979.19;5019547;28;20049;-73
2023/07/31 01:04:12;;;;;;;19.55;5.38;;;;;;;16.97;100.00;100962.56;5002282;28;20244;-73
2023/07/31 01:06:48;;;;;;;11.43;4.35;;;;;;;16.96;100.00;100974.94;5016701;28;20053;-73
2023/07/31 01:09:38;;;;;;;9.73;4.18;;;;;;;16.96;100.00;100968.81;4999809;28;20053;-73
2023/07/31 01:12:06;;;;;;;14.52;3.90;;;;;;;16.94;100.00;100965.44;5001089;28;20042;-73
2023/07/31 01:14:31;;;;;;;7.78;3.92;;;;;;;16.94;100.00;100949.56;5002800;28;20415;-73
2023/07/31 01:16:56;;;;;;;8.25;3.55;;;;;;;16.94;100.00;100952.19;5003919;28;20026;-73
2023/07/31 01:19:25;;;;;;;10.07;4.90;;;;;;;16.93;100.00;100948.69;5002580;28;20030;-73
2023/07/31 01:22:09;;;;;;;13.38;4.40;;;;;;;16.93;100.00;100953.13;5003617;28;20038;-73
2023/07/31 01:25:08;;;;;;;13.30;4.53;;;;;;;16.93;100.00;100947.84;5003541;28;20053;-73
2023/07/31 01:27:38;;;;;;;13.77;5.35;;;;;;;16.92;100.00;100949.66;5002920;28;20073;-73
2023/07/31 01:30:16;;;;;;;13.25;5.50;;;;;;;16.92;100.00;100949.66;5004241;28;20038;-73
2023/07/31 01:32:43;;;;;;;18.92;5.90;;;;;;;16.92;100.00;100946.13;5003913;28;20365;-73
2023/07/31 01:35:09;;;;;;;22.00;6.60;;;;;;;16.91;100.00;100936.53;5003453;28;20065;-73
2023/07/31 01:37:35;;;;;;;25.63;6.38;;;;;;;16.90;100.00;100935.69;5002237;28;20393;-73
2023/07/31 01:40:01;;;;;;;14.52;5.15;;;;;;;16.88;100.00;100941.06;5002985;28;20030;-73
2023/07/31 01:42:26;;;;;;;18.30;5.03;;;;;;;16.89;100.00;100934.81;5002556;28;20371;-74
2023/07/31 01:44:51;;;;;;;23.77;5.90;;;;;;;16.88;100.00;100924.34;5002856;28;20333;-73
2023/07/31 01:47:17;;;;;;;15.75;5.15;;;;;;;16.87;100.00;100933.22;5002491;28;20210;-73
2023/07/31 01:49:42;;;;;;;13.57;5.13;;;;;;;16.88;100.00;100940.19;5002516;28;20034;-73
2023/07/31 01:52:08;;;;;;;19.77;5.47;;;;;;;16.88;100.00;100924.34;5002540;28;20061;-73
2023/07/31 01:54:33;;;;;;;26.08;5.80;;;;;;;16.86;100.00;100916.53;5001171;28;20040;-74
2023/07/31 01:56:59;;;;;;;15.40;5.80;;;;;;;16.86;100.00;100910.34;5001850;28;20034;-73
2023/07/31 01:59:24;;;;;;;17.77;6.10;;;;;;;16.86;100.00;100897.13;5001933;28;20019;-73
2023/07/31 02:01:49;;;;;;;27.23;5.90;;;;;;;16.85;100.00;100898.94;5001557;28;20045;-73
2023/07/31 02:04:15;;;;;;;14.13;4.72;;;;;;;16.86;100.00;100886.56;4998145;28;20284;-74
2023/07/31 02:06:40;;;;;;;22.65;7.00;;;;;;;16.86;100.00;100886.56;4994362;28;20049;-74
2023/07/31 02:09:05;;;;;;;18.10;5.97;;;;;;;16.86;100.00;100883.91;5016746;28;20340;-74
2023/07/31 02:11:31;;;;;;;16.23;6.13;;;;;;;16.85;100.00;100890.16;5016296;28;20313;-74
2023/07/31 02:13:56;;;;;;;18.38;6.13;;;;;;;16.85;100.00;100879.59;5016531;28;20041;-74
2023/07/31 02:16:22;;;;;;;14.57;5.47;;;;;;;16.84;100.00;100876.06;5007199;28;20096;-74
2023/07/31 02:18:47;;;;;;;19.67;6.53;;;;;;;16.84;100.00;100875.25;5007639;28;20037;-74
2023/07/31 02:21:12;;;;;;;26.45;6.38;;;;;;;16.85;100.00;100882.25;5014266;28;20049;-74
2023/07/31 02:23:38;;;;;;;28.80;7.25;;;;;;;16.83;100.00;100882.34;5016342;28;20061;-75
2023/07/31 02:26:03;;;;;;;16.70;5.57;;;;;;;16.83;100.00;100870.91;5001674;28;20031;-75
2023/07/31 02:28:29;;;;;;;22.35;7.15;;;;;;;16.82;100.00;100877.94;4997062;28;20213;-74
2023/07/31 02:30:55;;;;;;;26.55;6.57;;;;;;;16.83;100.00;100878.84;5011111;28;20130;-74
2023/07/31 02:33:20;;;;;;;15.10;5.13;;;;;;;16.81;100.00;100868.34;5015913;28;20037;-74
2023/07/31 02:35:46;;;;;;;22.02;6.05;;;;;;;16.81;100.00;100876.28;5005089;28;20053;-74
2023/07/31 02:38:11;;;;;;;17.08;6.20;;;;;;;16.81;100.00;100881.56;4997612;28;20343;-74
2023/07/31 02:40:36;;;;;;;21.27;5.88;;;;;;;16.81;100.00;100883.38;5004846;28;20049;-74
2023/07/31 02:43:02;;;;;;;12.55;5.38;;;;;;;16.79;100.00;100875.53;5004625;28;20045;-74
2023/07/31 02:45:27;;;;;;;11.85;5.05;;;;;;;16.79;100.00;100867.59;5004059;28;20038;-74
2023/07/31 02:47:52;;;;;;;21.10;6.10;;;;;;;16.77;100.00;100872.13;5016723;28;20045;-74
2023/07/31 02:50:18;;;;;;;17.73;5.78;;;;;;;16.73;100.00;100867.97;5005555;28;20030;-74
2023/07/31 02:52:43;;;;;;;15.25;5.63;;;;;;;16.72;100.00;100861.00;5016414;28;20216;-74
2023/07/31 02:55:09;;;;;;;16.85;5.35;;;;;;;16.73;100.00;100859.22;5011696;28;20093;-74
2023/07/31 02:57:34;;;;;;;17.60;5.75;;;;;;;16.73;100.00;100840.69;4996113;28;20088;-74
2023/07/31 02:59:59;;;;;;;14.20;4.97;;;;;;;16.71;100.00;100835.50;5005258;28;20101;-74
2023/07/31 03:02:25;;;;;;;17.52;5.18;;;;;;;16.69;100.00;100840.88;5016049;28;20072;-74
2023/07/31 03:04:50;;;;;;;13.32;4.80;;;;;;;16.72;100.00;100844.28;5016298;28;20123;-74
2023/07/31 03:07:15;;;;;;;25.98;6.35;;;;;;;16.70;100.00;100837.31;5015601;28;20046;-74
2023/07/31 03:09:41;;;;;;;16.73;5.40;;;;;;;16.69;100.00;100842.69;5016001;28;20041;-74
2023/07/31 03:12:07;;;;;;;12.50;4.55;;;;;;;16.69;100.00;100832.13;5016202;28;20103;-74
2023/07/31 03:14:32;;;;;;;13.68;4.60;;;;;;;16.69;100.00;100832.13;5015675;28;20310;-74
2023/07/31 03:16:57;;;;;;;17.95;5.15;;;;;;;16.68;100.00;100830.41;5016208;28;20243;-74
2023/07/31 03:19:23;;;;;;;13.13;4.38;;;;;;;16.68;100.00;100831.28;5015698;28;20056;-74
2023/07/31 03:21:48;;;;;;;15.98;5.10;;;;;;;16.66;100.00;100827.91;5016162;28;20336;-74
2023/07/31 03:24:14;;;;;;;13.18;5.03;;;;;;;16.66;100.00;100822.59;5015620;28;20034;-74
2023/07/31 03:26:41;;;;;;;17.42;5.07;;;;;;;16.66;100.00;100822.59;5015601;28;20052;-74
2023/07/31 03:29:07;;;;;;;20.52;6.20;;;;;;;16.66;100.00;100822.59;5015522;28;20038;-74
2023/07/31 03:31:32;;;;;;;13.35;4.68;;;;;;;16.65;100.00;100833.28;5015468;28;20624;-74
2023/07/31 03:33:58;;;;;;;24.25;5.35;;;;;;;16.64;100.00;100824.47;5015438;28;20107;-74
2023/07/31 03:36:23;;;;;;;11.43;4.53;;;;;;;16.65;100.00;100815.63;5014851;28;20052;-74
2023/07/31 03:38:48;;;;;;;21.02;5.43;;;;;;;16.64;100.00;100824.47;5015735;28;20041;-74
2023/07/31 03:41:14;;;;;;;13.15;4.40;;;;;;;16.64;100.00;100811.25;5015262;28;20340;-74
2023/07/31 03:43:39;;;;;;;10.65;4.80;;;;;;;16.64;100.00;100808.63;5015177;28;20080;-74
2023/07/31 03:46:04;;;;;;;13.52;4.43;;;;;;;16.63;100.00;100806.94;5015806;28;20479;-74
2023/07/31 03:48:30;;;;;;;14.90;4.63;;;;;;;16.63;100.00;100806.94;5014840;28;20041;-74
2023/07/31 03:50:55;;;;;;;13.55;4.28;;;;;;;16.63;100.00;100801.66;5015657;28;20057;-74
2023/07/31 03:53:21;;;;;;;7.38;3.70;;;;;;;16.64;100.00;100797.19;5015219;28;20129;-74
2023/07/31 03:55:46;;;;;;;10.90;3.40;;;;;;;16.64;100.00;100792.75;5016075;28;20036;-74
2023/07/31 03:58:12;;;;;;;7.63;4.00;;;;;;;16.64;100.00;100792.75;5015294;28;20050;-74
2023/07/31 04:00:37;;;;;;;9.52;4.28;;;;;;;16.64;100.00;100782.19;5015247;28;20038;-74
2023/07/31 04:03:03;;;;;;;8.52;3.50;;;;;;;16.64;100.00;100773.41;5015064;28;20041;-74
2023/07/31 04:05:30;;;;;;;5.65;3.67;;;;;;;16.65;100.00;100780.41;5015328;28;20103;-74
2023/07/31 04:07:55;;;;;;;7.65;3.55;;;;;;;16.65;100.00;100775.94;5015050;28;20057;-74
2023/07/31 04:10:21;;;;;;;9.55;3.78;;;;;;;16.64;100.00;100776.88;5014876;28;20033;-74
2023/07/31 04:12:46;;;;;;;7.30;3.45;;;;;;;16.63;100.00;100775.22;5014276;28;20096;-74
2023/07/31 04:15:11;;;;;;;8.85;3.40;;;;;;;16.64;100.00;100765.47;5015105;28;20088;-74
2023/07/31 04:17:37;;;;;;;8.95;3.67;;;;;;;16.63;100.00;100767.28;5014535;28;20105;-74
2023/07/31 04:20:03;;;;;;;5.28;3.15;;;;;;;16.64;100.00;100776.88;5015542;28;20311;-74
2023/07/31 04:22:28;;;;;;;6.60;3.63;;;;;;;16.64;100.00;100765.47;5014761;28;20078;-74
2023/07/31 04:24:53;;;;;;;6.53;3.22;;;;;;;16.63;100.00;100767.28;5015565;28;20354;-74
2023/07/31 04:27:19;;;;;;;4.60;2.80;;;;;;;16.64;100.00;100768.13;5014681;28;20101;-74
2023/07/31 04:29:45;;;;;;;14.25;2.90;;;;;;;16.62;100.00;100749.72;5015140;28;20034;-74
2023/07/31 04:32:11;;;;;;;5.43;2.35;;;;;;;16.62;100.00;100759.44;5015270;28;20116;-74
2023/07/31 04:34:36;;;;;;;3.97;2.15;;;;;;;16.61;100.00;100744.56;5014541;28;20049;-74
2023/07/31 04:37:02;;;;;;;6.32;2.50;;;;;;;16.60;100.00;100751.63;5015189;28;20029;-74
2023/07/31 04:39:27;;;;;;;4.07;2.10;;;;;;;16.59;100.00;100747.28;5014718;28;20033;-74
2023/07/31 04:41:52;;;;;;;2.95;1.92;;;;;;;16.58;100.00;100750.88;5015178;28;20360;-74
2023/07/31 04:44:18;;;;;;;4.72;2.55;;;;;;;16.57;100.00;100749.19;5014849;28;20041;-74
2023/07/31 04:46:43;;;;;;;4.63;2.47;;;;;;;16.58;100.00;100747.38;5017387;28;20034;-74
2023/07/31 04:49:08;;;;;;;3.45;2.60;;;;;;;16.56;100.00;100736.91;5018611;28;20033;-74
2023/07/31 04:51:34;;;;;;;2.55;2.33;;;;;;;16.57;100.00;100745.69;5018494;28;20053;-74
2023/07/31 04:53:59;;;;;;;2.83;2.33;;;;;;;16.55;100.00;100740.50;5018722;28;20038;-74
2023/07/31 04:56:25;;;;;;;3.83;2.80;;;;;;;16.56;100.00;100738.72;5018229;28;20097;-74
2023/07/31 04:58:50;;;;;;;4.13;2.53;;;;;;;16.55;100.00;100739.66;5017040;28;20248;-74
2023/07/31 05:01:15;;;;;;;4.05;2.58;;;;;;;16.53;100.00;100736.28;5018548;28;20048;-74
2023/07/31 05:03:41;;;;;;;6.43;3.33;;;;;;;16.51;100.00;100724.00;5018232;28;20251;-74
2023/07/31 05:06:06;;;;;;;4.88;2.88;;;;;;;16.51;100.00;100728.44;5007077;28;20048;-74
2023/07/31 05:08:31;;;;;;;6.90;3.20;;;;;;;16.50;100.00;100722.31;5016221;28;20054;-74
2023/07/31 05:10:57;;;;;;;7.40;3.00;;;;;;;16.49;100.00;100719.78;5033053;28;20033;-74
2023/07/31 05:13:22;;;;;;;5.97;3.00;;;;;;;16.48;100.00;100712.78;5014922;28;20044;-74
2023/07/31 05:15:49;;;;;;;6.00;2.55;;;;;;;16.47;100.00;100711.94;5018077;28;20065;-74
2023/07/31 05:18:14;;;;;;;5.15;2.58;;;;;;;16.46;100.00;100717.31;5018140;28;20029;-74
2023/07/31 05:20:40;;;;;;;5.30;2.50;;;;;;;16.46;100.00;100714.69;5018156;28;20036;-74
2023/07/31 05:23:06;;;;;;;4.75;2.70;;;;;;;16.44;100.00;100717.44;5018193;28;20056;-74
2023/07/31 05:25:32;;;;;;;4.32;2.08;;;;;;;16.43;100.00;100705.19;5018049;28;20061;-74
2023/07/31 05:27:57;;;;;;;2.53;2.13;;;;;;;16.43;100.00;100707.81;5019020;28;20037;-74
2023/07/31 05:30:23;;;;;;;2.70;1.90;;;;;;;16.44;100.00;100703.38;5017886;28;20093;-74
2023/07/31 05:32:48;;;;;;;2.03;1.92;;;;;;;16.43;100.00;100691.97;5018737;28;20089;-74
2023/07/31 05:35:13;;;;;;;2.20;1.95;;;;;;;16.44;100.00;100695.44;5017871;28;20325;-74
2023/07/31 05:37:39;;;;;;;4.13;2.40;;;;;;;16.42;100.00;100686.78;5017627;28;20113;-74
2023/07/31 05:40:05;;;;;;;2.95;2.03;;;;;;;16.41;100.00;100693.88;5024314;28;20234;-74
2023/07/31 05:42:30;;;;;;;4.45;2.10;;;;;;;16.43;100.00;100691.97;5038049;28;20057;-74
2023/07/31 05:44:56;;;;;;;4.78;2.35;;;;;;;16.43;100.00;100691.13;5038278;28;20041;-73
2023/07/31 05:47:21;;;;;;;2.65;1.70;;;;;;;16.41;100.00;100683.28;5037776;28;20029;-74
2023/07/31 05:49:49;;;;;;;2.38;1.55;;;;;;;16.42;100.00;100686.78;5037917;28;20203;-74
2023/07/31 05:52:14;;;;;;;3.13;1.50;;;;;;;16.41;100.00;100685.94;5038409;28;20072;-74
2023/07/31 05:54:39;;;;;;;6.82;1.90;;;;;;;16.42;100.00;100684.13;5037704;28;20025;-74
2023/07/31 05:57:05;;;;;;;3.28;1.70;;;;;;;16.44;100.00;100677.78;5037224;28;20033;-74
2023/07/31 05:59:32;;;;;;;3.47;1.63;;;;;;;16.44;100.00;100671.66;5036350;28;20029;-74
2023/07/31 06:01:58;;;;;;;3.33;2.03;;;;;;;16.44;100.00;100683.06;5037849;28;20048;-74
2023/07/31 06:04:25;;;;;;;3.65;2.15;;;;;;;16.44;100.00;100683.06;5031542;28;20030;-74
2023/07/31 06:06:50;;;;;;;2.33;1.88;;;;;;;16.44;100.00;100680.41;5017248;28;20076;-74
2023/07/31 06:09:16;;;;;;;3.47;1.60;;;;;;;16.45;100.00;100673.38;5017135;28;20333;-74
2023/07/31 06:11:41;;;;;;;1.42;1.25;;;;;;;16.45;100.00;100668.06;5017808;28;20329;-74
2023/07/31 06:14:07;;;;;;;1.77;1.50;;;;;;;16.46;100.00;100675.03;5017121;28;20041;-74
2023/07/31 06:16:32;;;;;;;1.52;1.30;;;;;;;16.47;100.00;100663.53;5016984;28;20382;-74
2023/07/31 06:18:57;;;;;;;2.58;1.42;;;;;;;16.45;100.00;100674.19;5017328;28;20033;-74
2023/07/31 06:21:23;;;;;;;2.88;2.10;;;;;;;16.47;100.00;100660.88;5017996;28;20361;-74
2023/07/31 06:23:48;;;;;;;7.28;1.83;;;;;;;16.47;100.00;100656.44;5018643;28;20332;-74
2023/07/31 06:26:13;;;;;;;3.38;1.70;;;;;;;16.48;100.00;100657.28;5017503;28;20037;-74
2023/07/31 06:28:39;;;;;;;2.45;1.65;;;;;;;16.47;100.00;100661.72;5017837;28;20149;-74
2023/07/31 06:31:05;;;;;;;2.22;1.33;;;;;;;16.48;100.00;100659.91;5018645;28;20037;-74
2023/07/31 06:33:30;;;;;;;1.95;1.45;;;;;;;16.48;100.00;100655.50;5017369;28;20036;-74
2023/07/31 06:35:56;;;;;;;2.75;1.20;;;;;;;16.49;100.00;100651.06;5017285;28;20264;-74
2023/07/31 06:38:26;;;;;;;1.50;1.15;;;;;;;16.50;100.00;100647.47;5015946;28;20033;-74
2023/07/31 06:40:51;;;;;;;1.10;1.00;;;;;;;16.51;100.00;100654.44;5017005;28;20049;-74
2023/07/31 06:43:17;;;;;;;0.98;0.85;;;;;;;16.50;100.00;100635.09;5014349;28;20264;-74
2023/07/31 06:45:42;;;;;;;2.13;1.05;;;;;;;16.51;100.00;100639.41;5016633;28;20042;-74
2023/07/31 06:48:08;;;;;;;1.13;1.02;;;;;;;16.51;100.00;100643.84;5017002;28;20041;-74
2023/07/31 06:50:33;;;;;;;1.77;0.82;;;;;;;16.51;100.00;100633.28;5016339;28;20065;-74
2023/07/31 06:52:59;;;;;;;1.25;1.15;;;;;;;16.52;100.00;100635.00;5015905;28;20070;-74
2023/07/31 06:55:25;;;;;;;1.10;0.98;;;;;;;16.52;100.00;100635.00;5011707;28;20041;-74
2023/07/31 06:57:52;;;;;;;2.17;1.05;;;;;;;16.53;100.00;100628.72;4998812;28;20022;-74
2023/07/31 07:00:19;;;;;;;1.13;0.90;;;;;;;16.55;100.00;100641.84;5015827;28;20040;-74
2023/07/31 07:02:47;;;;;;;1.33;0.80;;;;;;;16.55;100.00;100632.09;5015833;28;20332;-74
2023/07/31 07:05:13;;;;;;;1.52;0.73;;;;;;;16.56;100.00;100639.09;5012447;28;20324;-74
2023/07/31 07:07:38;;;;;;;1.17;1.00;;;;;;;16.57;100.00;100637.28;5015234;28;20046;-74
2023/07/31 07:10:05;;;;;;;2.17;0.95;;;;;;;16.58;100.00;100646.94;5015010;28;20321;-74
2023/07/31 07:12:31;;;;;;;2.25;1.00;;;;;;;16.58;100.00;100641.66;5015571;28;20029;-74
2023/07/31 07:14:59;;;;;;;1.80;0.82;;;;;;;16.60;100.00;100642.38;5011575;28;20054;-74
2023/07/31 07:17:26;;;;;;;1.95;0.90;;;;;;;16.60;100.00;100640.56;5011019;28;20048;-74
2023/07/31 07:19:52;;;;;;;1.30;0.88;;;;;;;16.61;100.00;100642.28;5012598;28;20030;-74
2023/07/31 07:22:17;;;;;;;0.80;0.80;;;;;;;16.61;100.00;100630.88;5014744;28;20110;-74
2023/07/31 07:24:43;;;;;;;0.90;0.90;;;;;;;16.61;100.00;100644.94;5015662;28;20041;-75
2023/07/31 07:27:08;;;;;;;1.15;0.90;;;;;;;16.62;100.00;100646.59;5015732;28;20176;-75
2023/07/31 07:29:34;;;;;;;0.80;0.80;;;;;;;16.62;100.00;100638.66;5014688;28;20033;-75
2023/07/31 07:32:00;;;;;;;1.45;0.95;;;;;;;16.64;100.00;100647.34;5015705;28;20028;-74
2023/07/31 07:34:26;;;;;;;0.60;0.60;;;;;;;16.64;100.00;100631.47;5015100;28;20053;-74
2023/07/31 07:36:52;;;;;;;1.00;0.90;;;;;;;16.65;100.00;100640.28;5015756;28;20045;-74
2023/07/31 07:39:17;;;;;;;1.63;0.88;;;;;;;16.66;100.00;100634.88;5016017;28;20038;-75
2023/07/31 07:41:43;;;;;;;1.10;0.80;;;;;;;16.67;100.00;100639.19;4998752;28;20052;-75
2023/07/31 07:44:08;;;;;;;1.60;0.95;;;;;;;16.68;100.00;100645.31;5014291;28;20392;-75
2023/07/31 07:46:34;;;;;;;2.67;0.90;;;;;;;16.68;100.00;100635.63;5013879;28;20251;-75
2023/07/31 07:48:59;;;;;;;0.60;0.60;;;;;;;16.71;100.00;100637.19;5014312;28;20033;-74
2023/07/31 07:51:25;;;;;;;1.98;0.63;;;;;;;16.71;100.00;100634.53;5013757;28;20059;-75
2023/07/31 07:53:50;;;;;;;0.52;0.52;;;;;;;16.73;100.00;100637.09;5014728;28;20033;-75
2023/07/31 07:56:16;;;;;;;0.60;0.60;;;;;;;16.75;100.00;100635.19;5013317;28;20061;-75
2023/07/31 07:58:41;;;;;;;0.60;0.60;;;;;;;16.77;100.00;100638.56;5014084;28;20064;-74
2023/07/31 08:01:07;;;;;;;0.45;0.45;;;;;;;16.77;100.00;100630.63;5013917;28;20220;-75
2023/07/31 08:03:32;;;;;;;0.60;0.60;;;;;;;16.78;100.00;100624.41;5013295;28;20264;-75
2023/07/31 08:06:01;;;;;;;0.55;0.50;;;;;;;16.79;100.00;100631.34;5000158;28;20021;-75
2023/07/31 08:08:27;;;;;;;0.85;0.50;;;;;;;16.80;100.00;100619.84;5010521;28;20116;-75
2023/07/31 08:10:53;;;;;;;0.47;0.47;;;;;;;16.81;100.00;100622.38;5002817;28;20042;-75
2023/07/31 08:13:18;;;;;;;0.43;0.43;;;;;;;16.82;100.00;100612.63;4994931;28;20068;-75
2023/07/31 08:15:44;;;;;;;0.50;0.50;;;;;;;16.83;100.00;100611.72;4994806;28;20042;-75
2023/07/31 08:18:11;;;;;;;4.80;1.10;;;;;;;16.84;100.00;100616.06;4995289;28;20033;-75
2023/07/31 08:20:36;;;;;;;0.70;0.47;;;;;;;16.84;100.00;100624.81;4994489;28;20375;-75
2023/07/31 08:23:01;;;;;;;0.50;0.40;;;;;;;16.85;100.00;100621.22;4977786;28;20105;-75
2023/07/31 08:25:27;;;;;;;0.35;0.35;;;;;;;16.86;100.00;100622.94;4994974;28;20038;-75
2023/07/31 08:27:53;;;;;;;0.50;0.40;;;;;;;16.88;100.00;100636.03;4991134;28;20033;-75
2023/07/31 08:30:19;;;;;;;1.40;0.60;;;;;;;16.89;100.00;100616.56;4998135;28;20057;-75
2023/07/31 08:32:44;;;;;;;1.20;0.45;;;;;;;16.90;100.00;100623.56;4999519;28;20210;-75
2023/07/31 08:35:10;;;;;;;0.50;0.50;;;;;;;16.90;100.00;100620.94;4997641;28;20044;-75
2023/07/31 08:37:35;;;;;;;0.90;0.60;;;;;;;16.91;100.00;100619.13;4998427;28;20061;-75
2023/07/31 08:40:01;;;;;;;0.70;0.40;;;;;;;16.90;100.00;100615.63;5000945;28;20042;-74
2023/07/31 08:42:26;;;;;;;0.90;0.43;;;;;;;16.92;100.00;100612.84;4991617;28;20325;-75
2023/07/31 08:44:52;;;;;;;1.63;0.60;;;;;;;16.92;100.00;100605.78;4988060;28;20084;-75
2023/07/31 08:47:20;;;;;;;0.82;0.50;;;;;;;16.94;100.00;100603.88;4986731;28;20342;-75
2023/07/31 08:49:47;;;;;;;0.63;0.50;;;;;;;16.95;100.00;100604.72;4988896;28;20193;-75
2023/07/31 08:52:12;;;;;;;0.73;0.50;;;;;;;16.96;100.00;100606.41;4988680;28;20037;-75
2023/07/31 08:54:37;;;;;;;3.65;1.10;;;;;;;16.97;100.00;100614.25;4991597;28;20038;-75
2023/07/31 08:57:04;;;;;;;2.03;0.77;;;;;;;16.97;100.00;100608.97;4993739;28;20061;-75
2023/07/31 08:59:34;;;;;;;2.35;1.08;;;;;;;16.99;100.00;100606.19;4991561;28;20042;-75
2023/07/31 09:02:05;;;;;;;0.80;0.80;;;;;;;16.98;100.00;100605.34;4990814;28;20113;-75
2023/07/31 09:04:31;;;;;;;2.47;1.42;;;;;;;17.00;100.00;100624.59;5001971;28;20240;-75
2023/07/31 09:07:00;;;;;;;2.15;1.00;;;;;;;17.01;100.00;100607.78;5004172;28;20112;-75
2023/07/31 09:09:26;;;;;;;2.92;1.20;;;;;;;17.02;100.00;100605.97;5003082;28;20186;-75
2023/07/31 09:11:53;;;;;;;2.35;1.70;;;;;;;17.02;100.00;100609.44;5022389;28;20030;-75
2023/07/31 09:14:19;;;;;;;4.75;1.35;;;;;;;17.03;100.00;100610.31;5014152;28;20029;-75
2023/07/31 09:16:59;;;;;;;3.25;1.67;;;;;;;17.05;100.00;100611.03;5010942;28;20046;-75
2023/07/31 09:19:37;;;;;;;2.17;1.35;;;;;;;17.06;100.00;100607.44;5015093;28;20030;-75
2023/07/31 09:22:04;;;;;;;2.85;1.50;;;;;;;17.07;100.00;100614.44;5015653;28;20030;-75
2023/07/31 09:24:33;;;;;;;1.42;1.33;;;;;;;17.06;100.00;100607.44;5020081;28;20033;-75
2023/07/31 09:27:00;;;;;;;2.92;1.30;;;;;;;17.07;100.00;100599.38;5023412;28;20029;-75
2023/07/31 09:29:28;;;;;;;1.20;1.10;;;;;;;17.10;100.00;100600.13;5001855;28;20360;-74
2023/07/31 09:31:54;;;;;;;5.65;0.95;;;;;;;17.11;100.00;100610.59;5015718;28;20346;-75
2023/07/31 09:34:27;;;;;;;1.25;1.15;;;;;;;17.12;100.00;100606.13;5024391;28;20037;-75
2023/07/31 09:36:53;;;;;;;1.45;1.10;;;;;;;17.13;100.00;100603.38;5022827;28;20033;-75
2023/07/31 09:39:20;;;;;;;2.47;1.05;;;;;;;17.13;100.00;100598.09;5026530;28;20039;-75
2023/07/31 09:41:54;;;;;;;0.85;0.82;;;;;;;17.16;100.00;100599.69;5026160;28;20583;-75
2023/07/31 09:44:20;;;;;;;2.47;1.40;;;;;;;17.16;100.00;100586.47;5025304;28;20060;-75
2023/07/31 09:46:45;;;;;;;1.35;1.00;;;;;;;17.17;100.00;100596.06;5024660;28;20029;-75
2023/07/31 09:49:12;;;;;;;1.02;0.93;;;;;;;17.19;100.00;100597.69;5025848;28;20093;-75
2023/07/31 09:51:39;;;;;;;1.27;1.10;;;;;;;17.20;100.00;100595.88;5025100;28;20087;-75
2023/07/31 09:54:15;;;;;;;1.77;1.20;;;;;;;17.21;100.00;100602.88;5027447;28;20499;-75
2023/07/31 09:56:43;;;;;;;4.00;1.48;;;;;;;17.22;100.00;100591.31;5027035;28;20366;-75
2023/07/31 09:59:16;;;;;;;1.65;1.30;;;;;;;17.23;100.00;100596.50;5024763;28;20198;-75
2023/07/31 10:01:42;;;;;;;4.32;2.08;;;;;;;17.24;100.00;100592.03;5015205;28;20068;-75
2023/07/31 10:04:09;;;;;;;1.23;1.13;;;;;;;17.26;100.00;100584.81;5012181;28;20086;-75
2023/07/31 10:06:36;;;;;;;2.42;1.30;;;;;;;17.26;100.00;100590.97;5011054;28;20045;-75
2023/07/31 10:09:05;;;;;;;3.55;1.48;;;;;;;17.27;100.00;100582.06;5016960;28;20355;-75
2023/07/31 10:11:37;;;;;;;1.50;1.20;;;;;;;17.29;100.00;100575.84;5016170;28;20061;-75
2023/07/31 10:14:04;;;;;;;1.17;1.05;;;;;;;17.30;100.00;100582.81;5016864;28;20084;-75
2023/07/31 10:16:31;;;;;;;2.08;1.40;;;;;;;17.31;100.00;100589.78;5006012;28;20105;-75
2023/07/31 10:18:56;;;;;;;1.92;1.73;;;;;;;17.33;100.00;100598.47;5016846;28;20116;-74
2023/07/31 10:21:22;;;;;;;6.13;2.38;;;;;;;17.35;100.00;100596.53;5015599;28;20555;-75
2023/07/31 10:23:48;;;;;;;7.10;2.20;;;;;;;17.37;100.00;100595.50;5007374;28;20030;-75
2023/07/31 10:26:15;;;;;;;2.78;1.80;;;;;;;17.39;100.00;100592.72;4996283;28;20120;-75
2023/07/31 10:28:41;;;;;;;7.53;2.75;;;;;;;17.40;100.00;100591.78;5010739;28;20410;-75
2023/07/31 10:31:07;;;;;;;4.35;2.00;;;;;;;17.42;100.00;100592.50;5016476;28;20450;-74
2023/07/31 10:33:33;;;;;;;3.42;1.70;;;;;;;17.43;100.00;100602.16;5014811;28;20041;-75
2023/07/31 10:36:17;;;;;;;4.30;2.33;;;;;;;17.43;100.00;100596.84;4994126;28;20038;-75
2023/07/31 10:38:43;;;;;;;3.47;2.08;;;;;;;17.43;100.00;100594.19;4997549;28;20326;-75
2023/07/31 10:41:09;;;;;;;4.97;2.33;;;;;;;17.45;100.00;100592.28;4997891;28;20057;-75
2023/07/31 10:43:36;;;;;;;12.48;2.40;;;;;;;17.46;100.00;100593.94;4999008;28;20030;-75
2023/07/31 10:46:07;;;;;;;6.45;1.75;;;;;;;17.46;100.00;100588.66;5002736;28;20087;-75
2023/07/31 10:48:34;;;;;;;7.43;2.55;;;;;;;17.46;100.00;100586.88;5004571;28;20225;-74
2023/07/31 10:50:59;;;;;;;7.15;2.25;;;;;;;17.50;100.00;100594.56;5002759;28;20178;-75
2023/07/31 10:53:32;;;;;;;4.90;2.08;;;;;;;17.50;100.00;100583.97;4998356;28;20145;-75
2023/07/31 10:56:04;;;;;;;9.85;2.25;;;;;;;17.51;100.00;100593.63;4998100;28;20267;-75
2023/07/31 10:58:31;;;;;;;10.13;2.22;;;;;;;17.51;100.00;100589.16;5008441;28;20034;-75
2023/07/31 11:00:59;;;;;;;5.28;2.20;;;;;;;17.52;100.00;100579.41;4994730;28;20037;-75
2023/07/31 11:03:27;;;;;;;5.70;2.00;;;;;;;17.53;100.00;100583.75;4982537;28;20042;-75
2023/07/31 11:05:53;;;;;;;10.20;2.60;;;;;;;17.53;100.00;100573.19;4990875;28;20042;-75
2023/07/31 11:08:23;;;;;;;6.57;2.50;;;;;;;17.53;100.00;100566.06;5005420;28;20356;-75
2023/07/31 11:11:06;;;;;;;4.97;2.00;;;;;;;17.56;100.00;100567.66;5012016;28;20041;-75